CEZ weather

Cortez Municipal Airport
Cortez, Colorado, United States

Public forecast

Using degrees Fahrenheit for public forecast. Weather courtesy of forecast.io.

Current aviation weather report (METAR) for Cortez Municipal Airport

Retrieved 2019/12/13 06:53 UTC (38 minutes ago):

KCEZ 130653Z AUTO 00000KT 10SM FEW070 BKN090 M02/M03 A3018 RMK AO2 SLP216 T10171028 400721078

Closest aviation forecast (TAF) to Cortez Municipal Airport

Closest forecast is Four Corners Regional Airport, 38.8 nm (71.8 km) SSE. Retrieved 2019/12/13 06:36 UTC (55 minutes ago):

TAF KFMN 130533Z 1306/1406 VRB05KT P6SM BKN100 FM130900 07005KT P6SM BKN200 FM131800 29010G20KT P6SM BKN100 FM132100 30014G24KT P6SM OVC080